»·PEaware :: N22T KMRY-KOAK

N22T :: KMRY-KOAK

FLIGHT INFORMATION

Flight Status: Arrived
Operator: Privately registered:
United States
More flights under this callsign
Pilot: Slade E. (12022)
Aircraft: BEECH AIRCRAFT A90-E90 KING AIR
(BE9L)
More flights by this aircraft type
Origin: KMRY Monterey Peninsula
United States
Destination: KOAK Metro Oakland Intl
United States
More flights between these airports :: More routes between these airports
Route: MRY5SNS V111 KARNN V301 SUNOL
File this flight plan on PilotEdge
Remarks:
Altitude:
(Current/Filed)
8,000ft
Speed:
(Current/Filed)
230kts
Departed: 25-Aug-21 10:50 AM
Arrived: 25-Aug-21 11:27 AM
Distance/Time
Traveled:
71nm/0:36
Distance/Time
To Go:
Arrived

Flight Plot

Page will automatically refresh every two minutes.

Flight plan parsing failed; only flown route is shown


Map Options




Map Legend


Flown Route
Filed Route
Departure Airport
Arrival Airport
Navaid (VOR, NDB)
Fix

Horizontal Profiles

Position Reports

Time Latitude Longitude Heading Altitude Ground
Speed
25-Aug-21 10:29 36.589318 -121.857986 305 158ft 0kts
25-Aug-21 10:30 36.589318 -121.857986 305 158ft 0kts
25-Aug-21 10:31 36.589318 -121.857986 305 158ft 0kts
25-Aug-21 10:32 36.589318 -121.857986 305 158ft 0kts
25-Aug-21 10:33 36.589318 -121.857986 305 158ft 0kts
25-Aug-21 10:34 36.589318 -121.857986 305 158ft 0kts
25-Aug-21 10:35 36.589318 -121.857986 305 158ft 0kts
25-Aug-21 10:36 36.589318 -121.857986 305 158ft 0kts
25-Aug-21 10:37 36.589318 -121.857986 305 158ft 0kts
25-Aug-21 10:38 36.589318 -121.857986 305 158ft 0kts
25-Aug-21 10:39 36.589318 -121.857986 305 158ft 0kts
25-Aug-21 10:40 36.589318 -121.857986 305 158ft 0kts
25-Aug-21 10:41 36.589318 -121.857986 305 158ft 0kts
25-Aug-21 10:42 36.589318 -121.857986 305 158ft 0kts
25-Aug-21 10:43 36.589318 -121.857986 305 158ft 0kts
25-Aug-21 10:44 36.589318 -121.857986 305 158ft 0kts
25-Aug-21 10:45 36.589595 -121.857785 95 157ft 8kts
25-Aug-21 10:46 36.589366 -121.855944 46 160ft 8kts
25-Aug-21 10:47 36.589603 -121.854718 79 161ft 0kts
25-Aug-21 10:48 36.589956 -121.856052 327 156ft 0kts
25-Aug-21 10:49 36.587943 -121.847019 111 190ft 114kts
25-Aug-21 10:50 36.591945 -121.813805 344 1881ft 122kts
25-Aug-21 10:51 36.615189 -121.846367 308 3593ft 132kts
25-Aug-21 10:52 36.638689 -121.882528 306 5182ft 139kts
25-Aug-21 10:53 36.663156 -121.914447 8 6556ft 149kts
25-Aug-21 10:54 36.706845 -121.897721 41 7318ft 177kts
25-Aug-21 10:55 36.700520 -121.842532 116 8071ft 182kts
25-Aug-21 10:56 36.687942 -121.776109 99 8059ft 206kts
25-Aug-21 10:57 36.677980 -121.704191 101 8022ft 211kts
25-Aug-21 10:58 36.666809 -121.632004 93 8012ft 212kts
25-Aug-21 10:59 36.708447 -121.582627 30 7952ft 227kts
25-Aug-21 11:00 36.763567 -121.541929 31 8047ft 233kts
25-Aug-21 11:01 36.818721 -121.498133 30 8102ft 235kts
25-Aug-21 11:02 36.877316 -121.460890 30 8066ft 237kts
25-Aug-21 11:03 36.934625 -121.418861 30 8010ft 238kts
25-Aug-21 11:04 36.993027 -121.379818 28 7988ft 238kts
25-Aug-21 11:05 37.050555 -121.338661 27 7972ft 238kts
25-Aug-21 11:06 37.107980 -121.297767 31 7978ft 237kts
25-Aug-21 11:07 37.164538 -121.308707 316 7999ft 233kts
25-Aug-21 11:08 37.213744 -121.361479 319 8040ft 233kts
25-Aug-21 11:09 37.265091 -121.411799 318 8020ft 235kts
25-Aug-21 11:10 37.313177 -121.467134 316 8037ft 233kts
25-Aug-21 11:11 37.360869 -121.522518 316 7708ft 234kts
25-Aug-21 11:12 37.409307 -121.578512 315 6738ft 241kts
25-Aug-21 11:13 37.458496 -121.634459 317 6041ft 230kts
25-Aug-21 11:14 37.504388 -121.686615 314 5883ft 215kts
25-Aug-21 11:15 37.539266 -121.744297 298 5324ft 203kts
25-Aug-21 11:16 37.567748 -121.802449 300 4939ft 184kts
25-Aug-21 11:17 37.594543 -121.856633 298 4375ft 180kts
25-Aug-21 11:18 37.619432 -121.907732 300 4202ft 162kts
25-Aug-21 11:19 37.641736 -121.954496 292 3878ft 151kts
25-Aug-21 11:20 37.658289 -121.998725 292 3332ft 136kts
25-Aug-21 11:21 37.672484 -122.042168 289 2705ft 132kts
25-Aug-21 11:22 37.685559 -122.084871 291 2043ft 121kts
25-Aug-21 11:23 37.696221 -122.119222 293 1376ft 97kts
25-Aug-21 11:24 37.706518 -122.151081 296 1050ft 105kts
25-Aug-21 11:25 37.718562 -122.185539 292 308ft 102kts
25-Aug-21 11:26 37.727094 -122.211755 292 7ft 20kts
25-Aug-21 11:27 37.729588 -122.213401 68 7ft 5kts
25-Aug-21 11:28 37.729581 -122.212386 316 7ft 0kts
25-Aug-21 11:29 37.729581 -122.212385 317 7ft 0kts

Navigation Log

Ident Type
Flight plan parsing failed, navigation log unavailable